sensor_id;sensor_type;location;lat;lon;timestamp;pressure;altitude;pressure_sealevel;temperature;humidity
72892;BME280;61032;50.782;6.818;2023-04-22T00:00:40;99780.41;;;10.29;80.33
72892;BME280;61032;50.782;6.818;2023-04-22T00:01:41;99777.66;;;10.29;80.57
72892;BME280;61032;50.782;6.818;2023-04-22T00:02:42;99776.97;;;10.32;80.50
72892;BME280;61032;50.782;6.818;2023-04-22T00:03:42;99777.41;;;10.35;79.48
72892;BME280;61032;50.782;6.818;2023-04-22T00:04:43;99773.75;;;10.30;79.03
72892;BME280;61032;50.782;6.818;2023-04-22T00:05:47;99773.53;;;10.23;78.54
72892;BME280;61032;50.782;6.818;2023-04-22T00:06:47;99769.88;;;10.31;79.39
72892;BME280;61032;50.782;6.818;2023-04-22T00:07:47;99767.69;;;10.37;79.50
72892;BME280;61032;50.782;6.818;2023-04-22T00:08:48;99772.94;;;10.30;78.74
72892;BME280;61032;50.782;6.818;2023-04-22T00:09:49;99770.44;;;10.37;79.39
72892;BME280;61032;50.782;6.818;2023-04-22T00:10:49;99765.41;;;10.39;79.14
72892;BME280;61032;50.782;6.818;2023-04-22T00:11:50;99769.03;;;10.43;78.91
72892;BME280;61032;50.782;6.818;2023-04-22T00:12:51;99771.66;;;10.40;79.20
72892;BME280;61032;50.782;6.818;2023-04-22T00:13:51;99768.50;;;10.38;78.88
72892;BME280;61032;50.782;6.818;2023-04-22T00:14:52;99767.41;;;10.42;78.74
72892;BME280;61032;50.782;6.818;2023-04-22T00:15:52;99764.94;;;10.37;78.79
72892;BME280;61032;50.782;6.818;2023-04-22T00:16:53;99765.63;;;10.34;79.33
72892;BME280;61032;50.782;6.818;2023-04-22T00:17:54;99763.34;;;10.36;78.76
72892;BME280;61032;50.782;6.818;2023-04-22T00:18:54;99761.97;;;10.30;78.99
72892;BME280;61032;50.782;6.818;2023-04-22T00:19:54;99763.56;;;10.31;79.12
72892;BME280;61032;50.782;6.818;2023-04-22T00:20:55;99766.09;;;10.36;78.85
72892;BME280;61032;50.782;6.818;2023-04-22T00:21:55;99757.91;;;10.40;78.84
72892;BME280;61032;50.782;6.818;2023-04-22T00:22:56;99757.50;;;10.38;78.72
72892;BME280;61032;50.782;6.818;2023-04-22T00:23:56;99765.63;;;10.34;78.88
72892;BME280;61032;50.782;6.818;2023-04-22T00:24:57;99761.84;;;10.39;79.31
72892;BME280;61032;50.782;6.818;2023-04-22T00:25:57;99759.53;;;10.41;79.28
72892;BME280;61032;50.782;6.818;2023-04-22T00:26:58;99762.06;;;10.33;79.54
72892;BME280;61032;50.782;6.818;2023-04-22T00:27:59;99761.38;;;10.37;80.27
72892;BME280;61032;50.782;6.818;2023-04-22T00:28:59;99759.91;;;10.39;79.83
72892;BME280;61032;50.782;6.818;2023-04-22T00:30:00;99757.22;;;10.43;79.74
72892;BME280;61032;50.782;6.818;2023-04-22T00:31:00;99761.13;;;10.42;79.70
72892;BME280;61032;50.782;6.818;2023-04-22T00:32:02;99763.88;;;10.42;79.35
72892;BME280;61032;50.782;6.818;2023-04-22T00:33:03;99773.38;;;10.44;80.05
72892;BME280;61032;50.782;6.818;2023-04-22T00:34:03;99768.22;;;10.43;79.91
72892;BME280;61032;50.782;6.818;2023-04-22T00:35:04;99765.47;;;10.43;80.20
72892;BME280;61032;50.782;6.818;2023-04-22T00:36:05;99773.59;;;10.51;79.58
72892;BME280;61032;50.782;6.818;2023-04-22T00:37:05;99768.22;;;10.55;79.32
72892;BME280;61032;50.782;6.818;2023-04-22T00:38:06;99765.91;;;10.57;79.58
72892;BME280;61032;50.782;6.818;2023-04-22T00:39:06;99768.56;;;10.53;79.45
72892;BME280;61032;50.782;6.818;2023-04-22T00:40:07;99771.19;;;10.50;79.61
72892;BME280;61032;50.782;6.818;2023-04-22T00:41:08;99776.22;;;10.48;80.26
72892;BME280;61032;50.782;6.818;2023-04-22T00:42:09;99768.69;;;10.45;79.22
72892;BME280;61032;50.782;6.818;2023-04-22T00:43:10;99771.88;;;10.47;79.67
72892;BME280;61032;50.782;6.818;2023-04-22T00:44:11;99770.09;;;10.39;80.37
72892;BME280;61032;50.782;6.818;2023-04-22T00:45:14;99762.72;;;10.43;79.73
72892;BME280;61032;50.782;6.818;2023-04-22T00:46:17;99768.78;;;10.48;79.74
72892;BME280;61032;50.782;6.818;2023-04-22T00:47:17;99772.44;;;10.52;79.44
72892;BME280;61032;50.782;6.818;2023-04-22T00:48:18;99764.03;;;10.61;79.01
72892;BME280;61032;50.782;6.818;2023-04-22T00:49:19;99763.00;;;10.65;79.37
72892;BME280;61032;50.782;6.818;2023-04-22T00:50:20;99758.31;;;10.66;78.88
72892;BME280;61032;50.782;6.818;2023-04-22T00:51:20;99770.56;;;10.68;78.63
72892;BME280;61032;50.782;6.818;2023-04-22T00:52:20;99760.06;;;10.58;78.69
72892;BME280;61032;50.782;6.818;2023-04-22T00:53:21;99765.19;;;10.60;78.82
72892;BME280;61032;50.782;6.818;2023-04-22T00:54:21;99765.66;;;10.62;79.20
72892;BME280;61032;50.782;6.818;2023-04-22T00:55:22;99767.00;;;10.68;79.08
72892;BME280;61032;50.782;6.818;2023-04-22T00:56:25;99765.41;;;10.67;79.07
72892;BME280;61032;50.782;6.818;2023-04-22T00:57:28;99773.41;;;10.72;78.89
72892;BME280;61032;50.782;6.818;2023-04-22T00:58:30;99766.56;;;10.66;78.68
72892;BME280;61032;50.782;6.818;2023-04-22T00:59:30;99767.69;;;10.65;79.02
72892;BME280;61032;50.782;6.818;2023-04-22T01:00:31;99766.09;;;10.64;78.77
72892;BME280;61032;50.782;6.818;2023-04-22T01:01:31;99761.50;;;10.68;79.06
72892;BME280;61032;50.782;6.818;2023-04-22T01:02:32;99763.56;;;10.71;78.32
72892;BME280;61032;50.782;6.818;2023-04-22T01:03:33;99764.72;;;10.70;78.65
72892;BME280;61032;50.782;6.818;2023-04-22T01:04:37;99768.63;;;10.69;79.07
72892;BME280;61032;50.782;6.818;2023-04-22T01:05:37;99766.09;;;10.64;78.45
72892;BME280;61032;50.782;6.818;2023-04-22T01:06:39;99771.16;;;10.62;78.54
72892;BME280;61032;50.782;6.818;2023-04-22T01:07:40;99763.69;;;10.62;78.54
72892;BME280;61032;50.782;6.818;2023-04-22T01:08:40;99763.91;;;10.70;78.87
72892;BME280;61032;50.782;6.818;2023-04-22T01:09:41;99766.78;;;10.73;78.49
72892;BME280;61032;50.782;6.818;2023-04-22T01:10:42;99755.66;;;10.70;78.14
72892;BME280;61032;50.782;6.818;2023-04-22T01:11:43;99761.50;;;10.68;78.39
72892;BME280;61032;50.782;6.818;2023-04-22T01:12:43;99755.81;;;10.61;78.70
72892;BME280;61032;50.782;6.818;2023-04-22T01:13:44;99758.19;;;10.62;78.60
72892;BME280;61032;50.782;6.818;2023-04-22T01:14:44;99757.66;;;10.57;78.72
72892;BME280;61032;50.782;6.818;2023-04-22T01:15:45;99762.59;;;10.51;78.87
72892;BME280;61032;50.782;6.818;2023-04-22T01:16:45;99762.59;;;10.51;79.11
72892;BME280;61032;50.782;6.818;2023-04-22T01:17:46;99768.91;;;10.40;78.98
72892;BME280;61032;50.782;6.818;2023-04-22T01:18:46;99768.03;;;10.36;79.04
72892;BME280;61032;50.782;6.818;2023-04-22T01:19:47;99761.13;;;10.42;79.35
72892;BME280;61032;50.782;6.818;2023-04-22T01:20:48;99766.97;;;10.40;79.77
72892;BME280;61032;50.782;6.818;2023-04-22T01:21:51;99765.59;;;10.46;79.94
72892;BME280;61032;50.782;6.818;2023-04-22T01:22:54;99767.06;;;10.44;79.80
72892;BME280;61032;50.782;6.818;2023-04-22T01:23:55;99764.59;;;10.39;79.66
72892;BME280;61032;50.782;6.818;2023-04-22T01:24:55;99763.56;;;10.31;80.30
72892;BME280;61032;50.782;6.818;2023-04-22T01:25:56;99760.38;;;10.29;80.37
72892;BME280;61032;50.782;6.818;2023-04-22T01:26:56;99761.63;;;10.31;80.26
72892;BME280;61032;50.782;6.818;2023-04-22T01:27:57;99759.22;;;10.30;80.10
72892;BME280;61032;50.782;6.818;2023-04-22T01:29:00;99757.38;;;10.34;80.14
72892;BME280;61032;50.782;6.818;2023-04-22T01:30:01;99764.38;;;10.31;80.20
72892;BME280;61032;50.782;6.818;2023-04-22T01:31:01;99764.59;;;10.39;79.88
72892;BME280;61032;50.782;6.818;2023-04-22T01:32:03;99760.25;;;10.38;79.77
72892;BME280;61032;50.782;6.818;2023-04-22T01:33:03;99761.13;;;10.42;79.79
72892;BME280;61032;50.782;6.818;2023-04-22T01:34:04;99759.44;;;10.37;79.46
72892;BME280;61032;50.782;6.818;2023-04-22T01:35:07;99758.97;;;10.35;79.93
72892;BME280;61032;50.782;6.818;2023-04-22T01:36:07;99758.88;;;10.31;80.05
72892;BME280;61032;50.782;6.818;2023-04-22T01:37:07;99766.78;;;10.33;80.49
72892;BME280;61032;50.782;6.818;2023-04-22T01:38:10;99764.13;;;10.37;80.71
72892;BME280;61032;50.782;6.818;2023-04-22T01:39:10;99759.56;;;10.28;80.55
72892;BME280;61032;50.782;6.818;2023-04-22T01:40:12;99755.44;;;10.22;80.59
72892;BME280;61032;50.782;6.818;2023-04-22T01:41:13;99758.53;;;10.21;80.79
72892;BME280;61032;50.782;6.818;2023-04-22T01:42:14;99761.28;;;10.21;81.15
72892;BME280;61032;50.782;6.818;2023-04-22T01:43:14;99760.25;;;10.25;81.15
72892;BME280;61032;50.782;6.818;2023-04-22T01:44:15;99755.22;;;10.27;80.80
72892;BME280;61032;50.782;6.818;2023-04-22T01:45:15;99762.66;;;10.27;81.12
72892;BME280;61032;50.782;6.818;2023-04-22T01:46:16;99756.34;;;10.26;81.06
72892;BME280;61032;50.782;6.818;2023-04-22T01:47:17;99757.38;;;10.22;80.68
72892;BME280;61032;50.782;6.818;2023-04-22T01:48:17;99753.38;;;10.19;81.11
72892;BME280;61032;50.782;6.818;2023-04-22T01:49:17;99757.84;;;10.24;81.12
72892;BME280;61032;50.782;6.818;2023-04-22T01:50:19;99760.38;;;10.29;81.35
72892;BME280;61032;50.782;6.818;2023-04-22T01:51:20;99754.19;;;10.32;81.45
72892;BME280;61032;50.782;6.818;2023-04-22T01:52:21;99751.09;;;10.33;81.00
72892;BME280;61032;50.782;6.818;2023-04-22T01:53:21;99758.88;;;10.31;80.97
72892;BME280;61032;50.782;6.818;2023-04-22T01:54:22;99744.44;;;10.35;80.67
72892;BME280;61032;50.782;6.818;2023-04-22T01:55:22;99745.78;;;10.41;80.54
72892;BME280;61032;50.782;6.818;2023-04-22T01:56:22;99745.91;;;10.44;80.60
72892;BME280;61032;50.782;6.818;2023-04-22T01:57:23;99750.25;;;10.45;80.90
72892;BME280;61032;50.782;6.818;2023-04-22T01:58:23;99747.59;;;10.49;80.04
72892;BME280;61032;50.782;6.818;2023-04-22T01:59:23;99744.16;;;10.52;80.01
72892;BME280;61032;50.782;6.818;2023-04-22T02:00:23;99742.31;;;10.56;80.32
72892;BME280;61032;50.782;6.818;2023-04-22T02:01:24;99736.56;;;10.61;79.83
72892;BME280;61032;50.782;6.818;2023-04-22T02:02:24;99736.56;;;10.61;79.73
72892;BME280;61032;50.782;6.818;2023-04-22T02:03:25;99729.28;;;10.53;80.16
72892;BME280;61032;50.782;6.818;2023-04-22T02:04:25;99735.91;;;10.52;79.88
72892;BME280;61032;50.782;6.818;2023-04-22T02:05:26;99734.78;;;10.53;79.59
72892;BME280;61032;50.782;6.818;2023-04-22T02:06:26;99735.56;;;10.53;79.35
72892;BME280;61032;50.782;6.818;2023-04-22T02:07:26;99733.38;;;10.59;79.15
72892;BME280;61032;50.782;6.818;2023-04-22T02:08:27;99734.44;;;10.54;79.23
72892;BME280;61032;50.782;6.818;2023-04-22T02:09:27;99736.38;;;10.54;79.08
72892;BME280;61032;50.782;6.818;2023-04-22T02:10:27;99740.72;;;10.55;79.18
72892;BME280;61032;50.782;6.818;2023-04-22T02:11:28;99731.69;;;10.54;80.02
72892;BME280;61032;50.782;6.818;2023-04-22T02:12:28;99732.03;;;10.53;79.59
72892;BME280;61032;50.782;6.818;2023-04-22T02:13:36;99730.53;;;10.55;79.53
72892;BME280;61032;50.782;6.818;2023-04-22T02:14:36;99724.22;;;10.55;79.57
72892;BME280;61032;50.782;6.818;2023-04-22T02:15:36;99736.13;;;10.59;80.21
72892;BME280;61032;50.782;6.818;2023-04-22T02:16:39;99730.53;;;10.55;79.78
72892;BME280;61032;50.782;6.818;2023-04-22T02:17:41;99734.97;;;10.60;80.26
72892;BME280;61032;50.782;6.818;2023-04-22T02:18:42;99721.66;;;10.62;79.96
72892;BME280;61032;50.782;6.818;2023-04-22T02:19:42;99729.84;;;10.58;80.22
72892;BME280;61032;50.782;6.818;2023-04-22T02:20:43;99728.31;;;10.61;80.16
72892;BME280;61032;50.782;6.818;2023-04-22T02:21:43;99730.25;;;10.60;80.04
72892;BME280;61032;50.782;6.818;2023-04-22T02:22:44;99720.53;;;10.63;79.96
72892;BME280;61032;50.782;6.818;2023-04-22T02:23:44;99719.38;;;10.64;79.11
72892;BME280;61032;50.782;6.818;2023-04-22T02:24:45;99728.53;;;10.68;79.79
72892;BME280;61032;50.782;6.818;2023-04-22T02:25:49;99732.19;;;10.72;79.68
72892;BME280;61032;50.782;6.818;2023-04-22T02:26:50;99726.13;;;10.66;79.40
72892;BME280;61032;50.782;6.818;2023-04-22T02:27:50;99728.06;;;10.66;79.60
72892;BME280;61032;50.782;6.818;2023-04-22T02:28:53;99735.41;;;10.62;79.66
72892;BME280;61032;50.782;6.818;2023-04-22T02:29:53;99727.09;;;10.58;79.63
72892;BME280;61032;50.782;6.818;2023-04-22T02:30:54;99730.63;;;10.59;79.71
72892;BME280;61032;50.782;6.818;2023-04-22T02:31:54;99733.81;;;10.61;80.23
72892;BME280;61032;50.782;6.818;2023-04-22T02:32:54;99731.97;;;10.65;80.37
72892;BME280;61032;50.782;6.818;2023-04-22T02:33:55;99735.16;;;10.67;79.66
72892;BME280;61032;50.782;6.818;2023-04-22T02:34:55;99741.91;;;10.70;79.62
72892;BME280;61032;50.782;6.818;2023-04-22T02:35:55;99738.38;;;10.69;79.91
72892;BME280;61032;50.782;6.818;2023-04-22T02:36:56;99739.53;;;10.68;79.94
72892;BME280;61032;50.782;6.818;2023-04-22T02:37:56;99740.56;;;10.63;79.94
72892;BME280;61032;50.782;6.818;2023-04-22T02:38:57;99735.50;;;10.65;79.18
72892;BME280;61032;50.782;6.818;2023-04-22T02:39:57;99732.66;;;10.62;78.58
72892;BME280;61032;50.782;6.818;2023-04-22T02:40:57;99732.53;;;10.71;79.20
72892;BME280;61032;50.782;6.818;2023-04-22T02:41:57;99734.47;;;10.70;79.28
72892;BME280;61032;50.782;6.818;2023-04-22T02:42:58;99728.75;;;10.63;79.71
72892;BME280;61032;50.782;6.818;2023-04-22T02:43:59;99731.06;;;10.61;80.38
72892;BME280;61032;50.782;6.818;2023-04-22T02:44:59;99727.44;;;10.57;80.01
72892;BME280;61032;50.782;6.818;2023-04-22T02:45:59;99731.78;;;10.58;80.29
72892;BME280;61032;50.782;6.818;2023-04-22T02:47:00;99730.63;;;10.59;80.78
72892;BME280;61032;50.782;6.818;2023-04-22T02:48:00;99729.03;;;10.58;80.67
72892;BME280;61032;50.782;6.818;2023-04-22T02:49:01;99734.19;;;10.59;80.37
72892;BME280;61032;50.782;6.818;2023-04-22T02:50:01;99730.44;;;10.52;81.33
72892;BME280;61032;50.782;6.818;2023-04-22T02:51:01;99726.31;;;10.46;81.38
72892;BME280;61032;50.782;6.818;2023-04-22T02:52:02;99727.22;;;10.50;81.58
72892;BME280;61032;50.782;6.818;2023-04-22T02:53:02;99720.72;;;10.42;81.28
72892;BME280;61032;50.782;6.818;2023-04-22T02:54:02;99717.97;;;10.42;81.69
72892;BME280;61032;50.782;6.818;2023-04-22T02:55:03;99718.31;;;10.41;81.81
72892;BME280;61032;50.782;6.818;2023-04-22T02:56:04;99717.72;;;10.47;81.97
72892;BME280;61032;50.782;6.818;2023-04-22T02:57:04;99714.88;;;10.44;82.17
72892;BME280;61032;50.782;6.818;2023-04-22T02:58:05;99714.06;;;10.43;82.29
72892;BME280;61032;50.782;6.818;2023-04-22T02:59:06;99712.91;;;10.44;81.94
72892;BME280;61032;50.782;6.818;2023-04-22T03:00:07;99716.22;;;10.50;82.15
72892;BME280;61032;50.782;6.818;2023-04-22T03:01:07;99718.38;;;10.56;81.97
72892;BME280;61032;50.782;6.818;2023-04-22T03:02:07;99717.59;;;10.56;81.59
72892;BME280;61032;50.782;6.818;2023-04-22T03:03:09;99717.78;;;10.63;81.61
72892;BME280;61032;50.782;6.818;2023-04-22T03:04:09;99723.72;;;10.65;81.42
72892;BME280;61032;50.782;6.818;2023-04-22T03:05:11;99721.19;;;10.72;81.47
72892;BME280;61032;50.782;6.818;2023-04-22T03:06:11;99714.53;;;10.73;81.37
72892;BME280;61032;50.782;6.818;2023-04-22T03:07:11;99714.53;;;10.73;81.21
72892;BME280;61032;50.782;6.818;2023-04-22T03:08:12;99722.53;;;10.78;81.22
72892;BME280;61032;50.782;6.818;2023-04-22T03:09:12;99719.44;;;10.80;81.18
72892;BME280;61032;50.782;6.818;2023-04-22T03:10:12;99716.25;;;10.78;80.92
72892;BME280;61032;50.782;6.818;2023-04-22T03:11:13;99726.44;;;10.77;81.09
72892;BME280;61032;50.782;6.818;2023-04-22T03:12:13;99719.78;;;10.78;80.82
72892;BME280;61032;50.782;6.818;2023-04-22T03:13:13;99716.31;;;10.81;80.96
72892;BME280;61032;50.782;6.818;2023-04-22T03:14:13;99724.84;;;10.76;81.32
72892;BME280;61032;50.782;6.818;2023-04-22T03:15:14;99715.88;;;10.79;81.27
72892;BME280;61032;50.782;6.818;2023-04-22T03:16:15;99713.31;;;10.86;81.21
72892;BME280;61032;50.782;6.818;2023-04-22T03:17:16;99709.53;;;10.91;80.49
72892;BME280;61032;50.782;6.818;2023-04-22T03:18:16;99711.47;;;10.90;80.60
72892;BME280;61032;50.782;6.818;2023-04-22T03:19:16;99716.28;;;10.93;80.37
72892;BME280;61032;50.782;6.818;2023-04-22T03:20:17;99708.47;;;10.95;80.58
72892;BME280;61032;50.782;6.818;2023-04-22T03:21:17;99710.53;;;10.98;79.85
72892;BME280;61032;50.782;6.818;2023-04-22T03:22:17;99712.28;;;11.07;79.89
72892;BME280;61032;50.782;6.818;2023-04-22T03:23:18;99723.38;;;11.10;79.20
72892;BME280;61032;50.782;6.818;2023-04-22T03:24:18;99707.78;;;11.14;79.36
72892;BME280;61032;50.782;6.818;2023-04-22T03:25:18;99711.44;;;11.18;79.13
72892;BME280;61032;50.782;6.818;2023-04-22T03:26:19;99709.53;;;11.22;79.21
72892;BME280;61032;50.782;6.818;2023-04-22T03:27:19;99709.19;;;11.24;79.00
72892;BME280;61032;50.782;6.818;2023-04-22T03:28:19;99706.72;;;11.19;79.05
72892;BME280;61032;50.782;6.818;2023-04-22T03:29:20;99703.09;;;11.15;79.43
72892;BME280;61032;50.782;6.818;2023-04-22T03:30:20;99706.38;;;11.20;79.21
72892;BME280;61032;50.782;6.818;2023-04-22T03:31:21;99707.19;;;11.21;79.27
72892;BME280;61032;50.782;6.818;2023-04-22T03:32:21;99696.88;;;11.18;79.12
72892;BME280;61032;50.782;6.818;2023-04-22T03:33:21;99704.22;;;11.14;79.63
72892;BME280;61032;50.782;6.818;2023-04-22T03:34:22;99703.69;;;11.08;79.66
72892;BME280;61032;50.782;6.818;2023-04-22T03:35:22;99706.44;;;11.08;79.35
72892;BME280;61032;50.782;6.818;2023-04-22T03:36:22;99712.75;;;11.09;79.48
72892;BME280;61032;50.782;6.818;2023-04-22T03:37:23;99710.34;;;11.07;79.73
72892;BME280;61032;50.782;6.818;2023-04-22T03:38:23;99704.38;;;11.05;79.92
72892;BME280;61032;50.782;6.818;2023-04-22T03:39:23;99702.44;;;11.06;79.77
72892;BME280;61032;50.782;6.818;2023-04-22T03:40:24;99702.00;;;11.03;80.47
72892;BME280;61032;50.782;6.818;2023-04-22T03:41:24;99700.78;;;11.01;80.41
72892;BME280;61032;50.782;6.818;2023-04-22T03:42:25;99700.66;;;10.97;80.62
72892;BME280;61032;50.782;6.818;2023-04-22T03:43:26;99698.78;;;11.01;81.06
72892;BME280;61032;50.782;6.818;2023-04-22T03:44:26;99699.53;;;10.98;81.05
72892;BME280;61032;50.782;6.818;2023-04-22T03:45:26;99698.03;;;11.01;80.65
72892;BME280;61032;50.782;6.818;2023-04-22T03:46:26;99696.22;;;11.09;80.36
72892;BME280;61032;50.782;6.818;2023-04-22T03:47:27;99692.13;;;11.02;80.36
72892;BME280;61032;50.782;6.818;2023-04-22T03:48:27;99695.25;;;11.01;80.56
72892;BME280;61032;50.782;6.818;2023-04-22T03:49:34;99684.63;;;10.99;80.73
72892;BME280;61032;50.782;6.818;2023-04-22T03:50:35;99683.09;;;11.02;80.83
72892;BME280;61032;50.782;6.818;2023-04-22T03:51:35;99680.28;;;10.98;81.14
72892;BME280;61032;50.782;6.818;2023-04-22T03:52:36;99686.47;;;10.95;80.38
72892;BME280;61032;50.782;6.818;2023-04-22T03:53:36;99679.47;;;10.98;80.66
72892;BME280;61032;50.782;6.818;2023-04-22T03:54:36;99681.13;;;11.02;80.42
72892;BME280;61032;50.782;6.818;2023-04-22T03:55:37;99679.28;;;11.07;80.78
72892;BME280;61032;50.782;6.818;2023-04-22T03:56:37;99680.44;;;11.06;79.98
72892;BME280;61032;50.782;6.818;2023-04-22T03:57:37;99679.53;;;11.01;80.35
72892;BME280;61032;50.782;6.818;2023-04-22T03:58:38;99675.63;;;11.02;80.12
72892;BME280;61032;50.782;6.818;2023-04-22T03:59:38;99674.47;;;11.03;80.47
72892;BME280;61032;50.782;6.818;2023-04-22T04:00:38;99667.38;;;11.02;80.40
72892;BME280;61032;50.782;6.818;2023-04-22T04:01:39;99671.28;;;11.01;80.71
72892;BME280;61032;50.782;6.818;2023-04-22T04:02:39;99671.72;;;11.03;80.38
72892;BME280;61032;50.782;6.818;2023-04-22T04:03:40;99676.88;;;11.05;80.83
72892;BME280;61032;50.782;6.818;2023-04-22T04:04:41;99668.28;;;11.07;80.46
72892;BME280;61032;50.782;6.818;2023-04-22T04:05:41;99668.28;;;11.07;80.37
72892;BME280;61032;50.782;6.818;2023-04-22T04:06:41;99672.63;;;11.08;80.44
72892;BME280;61032;50.782;6.818;2023-04-22T04:07:41;99664.38;;;11.08;79.72
72892;BME280;61032;50.782;6.818;2023-04-22T04:08:42;99663.94;;;11.06;80.05
72892;BME280;61032;50.782;6.818;2023-04-22T04:09:42;99667.47;;;11.06;80.39
72892;BME280;61032;50.782;6.818;2023-04-22T04:10:42;99667.94;;;11.08;79.81
72892;BME280;61032;50.782;6.818;2023-04-22T04:11:43;99667.38;;;11.02;80.30
72892;BME280;61032;50.782;6.818;2023-04-22T04:12:43;99668.28;;;11.07;79.81
72892;BME280;61032;50.782;6.818;2023-04-22T04:13:43;99662.06;;;11.10;80.06
72892;BME280;61032;50.782;6.818;2023-04-22T04:14:43;99671.13;;;11.10;79.52
72892;BME280;61032;50.782;6.818;2023-04-22T04:15:44;99670.69;;;11.08;79.80
72892;BME280;61032;50.782;6.818;2023-04-22T04:16:44;99664.13;;;11.13;79.67
72892;BME280;61032;50.782;6.818;2023-04-22T04:17:45;99666.16;;;11.16;79.84
72892;BME280;61032;50.782;6.818;2023-04-22T04:18:48;99653.66;;;11.18;79.90
72892;BME280;61032;50.782;6.818;2023-04-22T04:19:49;99658.81;;;11.20;79.27
72892;BME280;61032;50.782;6.818;2023-04-22T04:20:49;99662.41;;;11.24;79.20
72892;BME280;61032;50.782;6.818;2023-04-22T04:21:50;99662.41;;;11.24;78.87
72892;BME280;61032;50.782;6.818;2023-04-22T04:22:50;99657.81;;;11.28;78.87
72892;BME280;61032;50.782;6.818;2023-04-22T04:23:50;99669.16;;;11.26;79.12
72892;BME280;61032;50.782;6.818;2023-04-22T04:24:51;99662.41;;;11.24;79.43
72892;BME280;61032;50.782;6.818;2023-04-22T04:26:00;99658.06;;;11.23;79.23
72892;BME280;61032;50.782;6.818;2023-04-22T04:27:02;99664.75;;;11.22;79.68
72892;BME280;61032;50.782;6.818;2023-04-22T04:28:05;99660.75;;;11.19;79.85
72892;BME280;61032;50.782;6.818;2023-04-22T04:29:08;99659.97;;;11.19;79.56
72892;BME280;61032;50.782;6.818;2023-04-22T04:30:09;99668.22;;;11.19;79.37
72892;BME280;61032;50.782;6.818;2023-04-22T04:31:09;99658.34;;;11.18;79.68
72892;BME280;61032;50.782;6.818;2023-04-22T04:32:09;99667.75;;;11.17;79.35
72892;BME280;61032;50.782;6.818;2023-04-22T04:33:10;99660.56;;;11.12;79.92
72892;BME280;61032;50.782;6.818;2023-04-22T04:34:11;99659.31;;;11.10;80.34
72892;BME280;61032;50.782;6.818;2023-04-22T04:35:11;99658.88;;;11.08;80.03
72892;BME280;61032;50.782;6.818;2023-04-22T04:36:15;99652.56;;;11.07;80.44
72892;BME280;61032;50.782;6.818;2023-04-22T04:37:15;99658.06;;;11.07;80.39
72892;BME280;61032;50.782;6.818;2023-04-22T04:38:16;99651.69;;;11.03;80.31
72892;BME280;61032;50.782;6.818;2023-04-22T04:39:16;99660.28;;;11.01;80.49
72892;BME280;61032;50.782;6.818;2023-04-22T04:40:16;99649.28;;;11.01;80.29
72892;BME280;61032;50.782;6.818;2023-04-22T04:41:18;99652.94;;;11.06;80.53
72892;BME280;61032;50.782;6.818;2023-04-22T04:42:20;99649.03;;;11.07;79.97
72892;BME280;61032;50.782;6.818;2023-04-22T04:43:23;99652.94;;;11.06;80.14
72892;BME280;61032;50.782;6.818;2023-04-22T04:44:25;99650.19;;;11.06;79.95
72892;BME280;61032;50.782;6.818;2023-04-22T04:45:30;99645.47;;;11.06;80.15
72892;BME280;61032;50.782;6.818;2023-04-22T04:46:31;99650.88;;;11.02;79.64
72892;BME280;61032;50.782;6.818;2023-04-22T04:47:33;99650.47;;;11.00;80.07
72892;BME280;61032;50.782;6.818;2023-04-22T04:48:34;99646.28;;;11.07;79.46
72892;BME280;61032;50.782;6.818;2023-04-22T04:49:35;99643.63;;;11.10;79.65
72892;BME280;61032;50.782;6.818;2023-04-22T04:50:42;99646.47;;;11.14;78.95
72892;BME280;61032;50.782;6.818;2023-04-22T04:51:42;99653.13;;;11.13;78.96
72892;BME280;61032;50.782;6.818;2023-04-22T04:52:42;99642.47;;;11.11;79.20
72892;BME280;61032;50.782;6.818;2023-04-22T04:53:43;99642.13;;;11.13;78.67
72892;BME280;61032;50.782;6.818;2023-04-22T04:54:43;99644.41;;;11.11;79.41
72892;BME280;61032;50.782;6.818;2023-04-22T04:55:43;99642.03;;;11.09;79.21
72892;BME280;61032;50.782;6.818;2023-04-22T04:56:44;99648.06;;;11.15;79.29
72892;BME280;61032;50.782;6.818;2023-04-22T04:57:44;99640.25;;;11.17;78.98
72892;BME280;61032;50.782;6.818;2023-04-22T04:58:45;99644.16;;;11.16;79.44
72892;BME280;61032;50.782;6.818;2023-04-22T04:59:45;99632.34;;;11.15;78.89
72892;BME280;61032;50.782;6.818;2023-04-22T05:00:45;99635.56;;;11.17;79.07
72892;BME280;61032;50.782;6.818;2023-04-22T05:01:46;99638.66;;;11.16;78.97
72892;BME280;61032;50.782;6.818;2023-04-22T05:02:46;99642.75;;;11.22;78.75
72892;BME280;61032;50.782;6.818;2023-04-22T05:03:46;99638.00;;;11.22;78.75
72892;BME280;61032;50.782;6.818;2023-04-22T05:04:47;99635.72;;;11.24;78.73
72892;BME280;61032;50.782;6.818;2023-04-22T05:05:47;99633.41;;;11.26;78.87
72892;BME280;61032;50.782;6.818;2023-04-22T05:06:48;99643.69;;;11.29;79.22
72892;BME280;61032;50.782;6.818;2023-04-22T05:07:48;99639.25;;;11.25;78.73
72892;BME280;61032;50.782;6.818;2023-04-22T05:08:48;99642.09;;;11.28;78.19
72892;BME280;61032;50.782;6.818;2023-04-22T05:09:49;99645.56;;;11.25;78.51
72892;BME280;61032;50.782;6.818;2023-04-22T05:10:49;99640.50;;;11.27;78.87
72892;BME280;61032;50.782;6.818;2023-04-22T05:11:49;99643.69;;;11.29;78.54
72892;BME280;61032;50.782;6.818;2023-04-22T05:12:50;99645.56;;;11.25;78.67
72892;BME280;61032;50.782;6.818;2023-04-22T05:13:50;99642.75;;;11.22;78.73
72892;BME280;61032;50.782;6.818;2023-04-22T05:14:51;99645.22;;;11.27;79.25
72892;BME280;61032;50.782;6.818;2023-04-22T05:15:52;99647.25;;;11.30;78.92
72892;BME280;61032;50.782;6.818;2023-04-22T05:16:52;99648.84;;;11.31;79.20
72892;BME280;61032;50.782;6.818;2023-04-22T05:17:52;99645.31;;;11.30;79.19
72892;BME280;61032;50.782;6.818;2023-04-22T05:18:53;99645.84;;;11.36;78.83
72892;BME280;61032;50.782;6.818;2023-04-22T05:19:53;99644.59;;;11.33;78.72
72892;BME280;61032;50.782;6.818;2023-04-22T05:20:53;99643.78;;;11.33;78.58
72892;BME280;61032;50.782;6.818;2023-04-22T05:21:54;99648.84;;;11.31;78.54